Airfield :
LOGIN :

Register | Disclaimer

   EN    FR    IT 

 










Legend :    VFR   Marginal VFR   IFR   Intensive IFR   Very Intensive IFR
Visi :
Ceiling :
>= 8 km
>= 3000ft
5 to 8 km
1000 to 3000 ft
1500m to 5 km
500 to 1000 ft
800 to 1500m
200 to 500 ft
< 800m
< 200 ft
Symbols :   Thunderstorms  Fog  Heavy snow  Heavy precipitations  Wind > 20 kt
SIGMETs :     Misc.  Thunderstorms  Icing  Turbulence  Mountain Waves  Volcanic Ashes






- Airport Elevation : 3 ft
- IATA code : LWR


EHLW - Leuuwarden Air Base

CURRENT METAR :
  • 270755Z AUTO 18008KT 150V210 9999 BKN087 OVC093 02/01 Q0999 BLU 18007KT 9000 BR NSC

EXPIRED METARs :
  • 270726Z AUTO 18008KT 150V210 9000 BR OVC100 02/01 Q0999 BLU 18007KT 9000 BR NSC
  • 270725Z AUTO 18008KT 150V210 9999 OVC110 02/01 Q0999 BLU 18007KT CAVOK
  • 270655Z AUTO 17007KT 9999 OVC100 02/01 Q0999 BLU 18007KT CAVOK
  • 270639Z AUTO 18007KT 150V210 9999 OVC100 02/01 Q1000 BLU 18007KT CAVOK
  • 270625Z AUTO 18005KT 9999 OVC110 02/01 Q1000 BLU
  • 270555Z AUTO 17006KT 9999 OVC130 01/01 Q1000 BLU
  • 270525Z AUTO 19006KT 9999 OVC130 01/01 Q1000 BLU

TAF TAF EHLW
Valid from the 27 at 06:00 until the 27 at 18:00 UTC


270516Z 2706/2718 19007KT 9999 FEW025
BECMG 2710/2712 4000 RA BKN006 OVC008
TEMPO 2710/2718 2500 RASN SHRA SCT003 OVC006 FEW015CB
PROB30
TEMPO 2711/2718 1000 SNRA SCT001 BKN002
BECMG 2716/2718 27015KT



MET'MAP, your aeronautical weather chart ! - Copyright ORBIFLY December 2007 - Disclaimer

ORBIFLY MET'MAP TEAM :

Programming & Development : Alexandra Zaïnal
Concept & original design : Baudouin d'Aumeries
Assistance for programming : Marc-Olivier Méhu
Technical & hardware support : Manuel Goepfert

Contact : metmap@orbifly.com




SOURCES & CREDITS :

   NOAA